createdAt,value
2019-02-11T00:01:07.028Z,0.80
2019-02-11T00:03:35.576Z,0.80
2019-02-11T00:06:04.238Z,0.90
2019-02-11T00:08:32.791Z,1.00
2019-02-11T00:11:01.680Z,0.97
2019-02-11T00:13:30.300Z,0.87
2019-02-11T00:15:58.891Z,1.00
2019-02-11T00:18:27.447Z,1.00
2019-02-11T00:20:56.043Z,0.90
2019-02-11T00:23:24.601Z,0.83
2019-02-11T00:25:53.196Z,0.83
2019-02-11T00:28:21.747Z,0.73
2019-02-11T00:30:50.344Z,0.57
2019-02-11T00:33:18.968Z,0.60
2019-02-11T00:35:47.560Z,0.60
2019-02-11T00:38:16.115Z,0.60
2019-02-11T00:40:44.714Z,0.90
2019-02-11T00:43:18.957Z,0.60
2019-02-11T00:45:43.612Z,0.90
2019-02-11T00:48:12.159Z,0.70
2019-02-11T00:50:40.756Z,0.70
2019-02-11T00:53:09.304Z,0.70
2019-02-11T00:55:37.901Z,0.77
2019-02-11T00:58:06.448Z,0.77
2019-02-11T01:00:35.043Z,0.70
2019-02-11T01:03:03.598Z,0.80
2019-02-11T01:05:32.187Z,0.90
2019-02-11T01:08:00.740Z,0.90
2019-02-11T01:10:29.340Z,0.80
2019-02-11T01:12:57.896Z,1.10
2019-02-11T01:15:26.492Z,1.20
2019-02-11T01:17:55.044Z,1.20
2019-02-11T01:20:23.634Z,0.90
2019-02-11T01:22:52.191Z,1.37
2019-02-11T01:25:20.788Z,1.17
2019-02-11T01:27:49.339Z,1.23
2019-02-11T01:30:17.887Z,1.33
2019-02-11T01:32:46.496Z,1.10
2019-02-11T01:35:15.039Z,1.60
2019-02-11T01:37:43.637Z,1.40
2019-02-11T01:40:12.190Z,1.33
2019-02-11T01:42:40.788Z,1.30
2019-02-11T01:45:11.488Z,1.57
2019-02-11T01:47:40.084Z,1.50
2019-02-11T01:50:11.372Z,1.40
2019-02-11T01:52:40.044Z,1.30
2019-02-11T01:55:08.668Z,1.50
2019-02-11T01:57:37.261Z,1.57
2019-02-11T02:00:12.192Z,1.50
2019-02-11T02:02:40.781Z,1.63
2019-02-11T02:05:09.968Z,1.47
2019-02-11T02:07:38.563Z,1.40
2019-02-11T02:10:10.357Z,1.57
2019-02-11T02:12:38.960Z,1.50
2019-02-11T02:15:09.548Z,1.40
2019-02-11T02:17:38.148Z,1.90
2019-02-11T02:20:09.940Z,1.57
2019-02-11T02:22:38.552Z,1.73
2019-02-11T02:25:08.786Z,1.80
2019-02-11T02:27:37.336Z,1.60
2019-02-11T02:30:11.544Z,1.50
2019-02-11T02:32:40.095Z,1.57
2019-02-11T02:35:08.754Z,1.70
2019-02-11T02:37:37.231Z,1.70
2019-02-11T02:40:08.187Z,1.57
2019-02-11T02:42:36.736Z,1.47
2019-02-11T02:45:07.274Z,1.70
2019-02-11T02:47:35.824Z,1.53
2019-02-11T02:50:06.048Z,1.47
2019-02-11T02:52:34.603Z,1.50
2019-02-11T02:55:03.263Z,1.60
2019-02-11T02:57:31.827Z,1.83
2019-02-11T03:00:00.631Z,1.60
2019-02-11T03:02:29.189Z,1.47
2019-02-11T03:04:57.787Z,1.43
2019-02-11T03:07:26.334Z,1.70
2019-02-11T03:09:54.929Z,1.63
2019-02-11T03:12:23.480Z,1.30
2019-02-11T03:14:52.074Z,1.40
2019-02-11T03:17:20.636Z,1.90
2019-02-11T03:19:49.277Z,1.47
2019-02-11T03:22:17.829Z,1.20
2019-02-11T03:24:46.420Z,1.80
2019-02-11T03:27:14.986Z,1.23
2019-02-11T03:29:43.578Z,1.43
2019-02-11T03:32:12.133Z,2.00
2019-02-11T03:34:40.840Z,1.87
2019-02-11T03:37:09.456Z,1.50
2019-02-11T03:39:38.054Z,1.13
2019-02-11T03:42:06.679Z,1.83
2019-02-11T03:44:35.281Z,1.67
2019-02-11T03:47:03.857Z,1.53
2019-02-11T03:49:32.457Z,1.50
2019-02-11T03:52:01.018Z,1.70
2019-02-11T03:54:29.760Z,1.33
2019-02-11T03:56:58.333Z,1.40
2019-02-11T03:59:27.060Z,1.43
2019-02-11T04:01:55.666Z,1.90
2019-02-11T04:04:24.216Z,1.23
2019-02-11T04:06:52.903Z,1.33
2019-02-11T04:09:21.582Z,1.27
2019-02-11T04:11:50.141Z,1.53
2019-02-11T04:14:24.390Z,1.47
2019-02-11T04:16:49.009Z,1.50
2019-02-11T04:19:17.705Z,1.40
2019-02-11T04:21:46.256Z,1.90
2019-02-11T04:24:14.864Z,1.60
2019-02-11T04:26:43.416Z,1.33
2019-02-11T04:29:12.023Z,1.50
2019-02-11T04:31:40.591Z,1.47
2019-02-11T04:34:09.198Z,1.40
2019-02-11T04:36:37.744Z,1.77
2019-02-11T04:39:06.418Z,1.70
2019-02-11T04:41:34.971Z,1.67
2019-02-11T04:44:03.581Z,1.60
2019-02-11T04:46:32.136Z,1.63
2019-02-11T04:49:00.750Z,2.00
2019-02-11T04:51:29.292Z,1.53
2019-02-11T04:53:57.896Z,2.13
2019-02-11T04:56:26.449Z,1.60
2019-02-11T04:58:55.065Z,1.73
2019-02-11T05:01:23.611Z,2.00
2019-02-11T05:03:53.959Z,1.73
2019-02-11T05:06:22.422Z,2.07
2019-02-11T05:08:51.019Z,2.10
2019-02-11T05:11:19.580Z,1.80
2019-02-11T05:13:48.191Z,1.43
2019-02-11T05:16:16.732Z,1.37
2019-02-11T05:18:45.336Z,1.97
2019-02-11T05:21:13.891Z,2.10
2019-02-11T05:23:42.507Z,1.60
2019-02-11T05:26:11.063Z,2.20
2019-02-11T05:28:39.678Z,1.40
2019-02-11T05:31:08.236Z,1.93
2019-02-11T05:33:36.849Z,1.80
2019-02-11T05:36:05.408Z,1.50
2019-02-11T05:38:34.017Z,1.63
2019-02-11T05:41:02.565Z,1.40
2019-02-11T05:43:31.177Z,2.10
2019-02-11T05:45:59.738Z,1.83
2019-02-11T05:48:28.344Z,2.33
2019-02-11T05:50:56.892Z,1.80
2019-02-11T05:53:25.508Z,1.70
2019-02-11T05:55:54.070Z,1.80
2019-02-11T05:58:22.670Z,1.87
2019-02-11T06:00:51.317Z,1.83
2019-02-11T06:03:19.836Z,2.00
2019-02-11T06:05:48.440Z,1.60
2019-02-11T06:08:16.996Z,1.93
2019-02-11T06:10:45.596Z,1.70
2019-02-11T06:13:14.155Z,1.73
2019-02-11T06:15:42.769Z,1.80
2019-02-11T06:18:11.384Z,2.17
2019-02-11T06:20:39.996Z,2.67
2019-02-11T06:23:08.563Z,1.63
2019-02-11T06:25:37.165Z,1.60
2019-02-11T06:28:05.719Z,1.80
2019-02-11T06:30:34.338Z,1.40
2019-02-11T06:33:02.891Z,1.90
2019-02-11T06:35:31.501Z,2.33
2019-02-11T06:38:00.063Z,2.37
2019-02-11T06:40:30.207Z,2.10
2019-02-11T06:42:58.761Z,2.23
2019-02-11T06:45:27.368Z,2.17
2019-02-11T06:47:56.251Z,2.17
2019-02-11T06:50:24.994Z,1.60
2019-02-11T06:52:53.539Z,1.90
2019-02-11T06:55:22.139Z,1.80
2019-02-11T06:57:50.704Z,2.30
2019-02-11T07:00:19.316Z,2.30
2019-02-11T07:02:47.877Z,2.30
2019-02-11T07:05:22.142Z,2.50
2019-02-11T07:07:50.705Z,2.50
2019-02-11T07:10:20.549Z,2.20
2019-02-11T07:12:49.591Z,2.23
2019-02-11T07:15:22.206Z,2.53
2019-02-11T07:17:48.680Z,2.13
2019-02-11T07:20:17.312Z,2.10
2019-02-11T07:22:47.767Z,2.10
2019-02-11T07:25:16.794Z,1.93
2019-02-11T07:27:45.522Z,2.87
2019-02-11T07:33:16.627Z,3.20
2019-02-11T07:35:45.216Z,2.40
2019-02-11T07:38:14.089Z,2.50
2019-02-11T07:40:42.672Z,2.03
2019-02-11T07:43:15.600Z,2.17
2019-02-11T07:45:45.847Z,2.37
2019-02-11T07:48:14.400Z,2.10
2019-02-11T07:50:43.186Z,2.57
2019-02-11T07:53:11.737Z,2.10
2019-02-11T07:55:40.447Z,1.63
2019-02-11T07:58:09.011Z,2.40
2019-02-11T08:00:37.720Z,2.27
2019-02-11T08:03:06.337Z,2.07
2019-02-11T08:05:34.949Z,2.20
2019-02-11T08:08:03.502Z,2.10
2019-02-11T08:10:32.161Z,1.90
2019-02-11T08:13:00.722Z,2.20
2019-02-11T08:15:29.331Z,2.50
2019-02-11T08:18:00.130Z,3.10
2019-02-11T08:20:28.960Z,2.67
2019-02-11T08:22:57.584Z,2.57
2019-02-11T08:25:26.188Z,3.20
2019-02-11T08:27:54.761Z,2.60
2019-02-11T08:30:23.380Z,2.47
2019-02-11T08:32:52.008Z,2.70
2019-02-11T08:35:21.019Z,3.13
2019-02-11T08:37:49.571Z,3.60
2019-02-11T08:40:18.445Z,2.70
2019-02-11T08:42:50.007Z,3.20
2019-02-11T08:45:18.672Z,3.53
2019-02-11T08:47:47.307Z,3.00
2019-02-11T08:50:16.149Z,3.57
2019-02-11T08:52:44.717Z,3.50
2019-02-11T08:55:13.324Z,2.40
2019-02-11T08:57:41.953Z,2.50
2019-02-11T09:00:14.290Z,2.63
2019-02-11T09:02:43.772Z,2.20
2019-02-11T09:05:12.437Z,2.33
2019-02-11T09:07:41.173Z,2.33
2019-02-11T09:10:13.571Z,1.90
2019-02-11T09:12:42.130Z,2.30
2019-02-11T09:15:12.260Z,1.90
2019-02-11T09:17:40.812Z,2.63
2019-02-11T09:20:11.343Z,2.40
2019-02-11T09:22:39.994Z,2.77
2019-02-11T09:25:11.564Z,2.30
2019-02-11T09:27:40.194Z,2.00
2019-02-11T09:30:11.873Z,2.50
2019-02-11T09:32:40.500Z,2.47
2019-02-11T09:35:09.243Z,2.30
2019-02-11T09:37:37.804Z,2.40
2019-02-11T09:40:09.556Z,1.93
2019-02-11T09:42:38.208Z,2.30
2019-02-11T09:45:12.492Z,2.20
2019-02-11T09:47:41.101Z,2.47
2019-02-11T09:50:24.635Z,1.70
2019-02-11T09:52:53.278Z,1.90
2019-02-11T09:55:24.493Z,2.23
2019-02-11T09:57:54.003Z,1.93
2019-02-11T10:00:22.744Z,2.40
2019-02-11T10:02:51.373Z,2.23
2019-02-11T10:05:20.116Z,2.20
2019-02-11T10:07:48.676Z,2.13
2019-02-11T10:10:17.879Z,2.30
2019-02-11T10:12:46.572Z,1.97
2019-02-11T10:15:15.735Z,1.83
2019-02-11T10:17:44.291Z,2.13
2019-02-11T10:20:14.520Z,2.03
2019-02-11T10:22:43.197Z,1.77
2019-02-11T10:25:14.740Z,1.40
2019-02-11T10:27:44.934Z,2.20
2019-02-11T10:30:15.118Z,1.60
2019-02-11T10:32:43.672Z,1.87
2019-02-11T10:35:13.117Z,1.93
2019-02-11T10:37:41.680Z,1.83
2019-02-11T10:40:12.192Z,1.53
2019-02-11T10:42:41.570Z,2.17
2019-02-11T10:45:12.521Z,1.53
2019-02-11T10:47:42.704Z,1.40
2019-02-11T10:50:13.676Z,1.93
2019-02-11T10:52:42.308Z,1.83
2019-02-11T10:55:13.729Z,1.83
2019-02-11T10:57:42.756Z,1.53
2019-02-11T11:00:19.757Z,1.17
2019-02-11T11:02:48.387Z,2.00
2019-02-11T11:05:17.055Z,2.00
2019-02-11T11:07:45.951Z,2.00
2019-02-11T11:10:29.810Z,1.57
2019-02-11T11:12:58.638Z,1.50
2019-02-11T11:15:28.965Z,1.73
2019-02-11T11:17:58.176Z,2.50
2019-02-11T11:20:27.580Z,2.40
2019-02-11T11:22:56.221Z,2.10
2019-02-11T11:25:25.075Z,2.80
2019-02-11T11:27:53.948Z,2.87
2019-02-11T11:30:22.671Z,3.57
2019-02-11T11:32:51.229Z,2.43
2019-02-11T11:35:20.017Z,2.57
2019-02-11T11:37:48.733Z,2.80
2019-02-11T11:40:19.421Z,2.53
2019-02-11T11:42:48.048Z,2.53
2019-02-11T11:45:21.015Z,2.77
2019-02-11T11:47:49.569Z,1.80
2019-02-11T11:50:18.319Z,2.17
2019-02-11T11:52:47.022Z,2.13
2019-02-11T11:55:18.938Z,2.10
2019-02-11T11:57:47.658Z,2.10
2019-02-11T12:00:18.707Z,2.37
2019-02-11T12:03:00.798Z,1.93
2019-02-11T12:05:17.904Z,2.23
2019-02-11T12:07:46.500Z,4.30
2019-02-11T12:10:15.106Z,2.13
2019-02-11T12:12:43.769Z,2.20
2019-02-11T12:15:17.945Z,1.97
2019-02-11T12:17:47.082Z,1.93
2019-02-11T12:20:16.398Z,2.00
2019-02-11T12:22:45.239Z,2.20
2019-02-11T12:25:17.866Z,2.43
2019-02-11T12:27:46.647Z,2.70
2019-02-11T12:30:17.982Z,2.67
2019-02-11T12:32:46.592Z,2.10
2019-02-11T12:35:15.195Z,2.13
2019-02-11T12:37:45.011Z,2.00
2019-02-11T12:40:13.991Z,2.00
2019-02-11T12:42:42.651Z,2.23
2019-02-11T12:45:16.737Z,2.47
2019-02-11T12:47:45.337Z,2.13
2019-02-11T12:50:15.559Z,1.97
2019-02-11T12:52:44.204Z,2.30
2019-02-11T12:55:15.095Z,1.80
2019-02-11T12:57:43.741Z,2.10
2019-02-11T13:00:21.462Z,1.90
2019-02-11T13:02:50.234Z,2.33
2019-02-11T13:05:22.614Z,2.57
2019-02-11T13:07:49.180Z,2.43
2019-02-11T13:10:20.312Z,2.00
2019-02-11T13:12:49.201Z,2.33
2019-02-11T13:15:52.678Z,1.90
2019-02-11T13:17:49.315Z,1.80
2019-02-11T13:20:18.592Z,1.97
2019-02-11T13:22:47.372Z,2.27
2019-02-11T13:25:17.267Z,2.70
2019-02-11T13:27:45.942Z,2.60
2019-02-11T13:30:16.845Z,2.33
2019-02-11T13:32:45.606Z,2.97
2019-02-11T13:35:14.301Z,2.13
2019-02-11T13:37:42.958Z,1.83
2019-02-11T13:40:11.778Z,2.20
2019-02-11T13:42:40.620Z,1.30
2019-02-11T13:45:12.311Z,1.37
2019-02-11T13:47:53.705Z,2.00
2019-02-11T13:50:14.565Z,1.80
2019-02-11T13:52:43.345Z,2.20
2019-02-11T13:55:12.050Z,2.57
2019-02-11T13:57:40.756Z,2.00
2019-02-11T14:00:19.587Z,1.77
2019-02-11T14:02:50.742Z,1.60
2019-02-11T14:05:19.548Z,1.47
2019-02-11T14:07:48.158Z,1.80
2019-02-11T14:10:16.795Z,1.70
2019-02-11T14:12:45.980Z,1.70
2019-02-11T14:15:19.669Z,1.30
2019-02-11T14:17:44.952Z,1.70
2019-02-11T14:20:21.681Z,1.30
2019-02-11T14:22:50.373Z,1.60
2019-02-11T14:25:39.340Z,1.50
2019-02-11T14:27:49.398Z,1.50
2019-02-11T14:30:20.467Z,1.17
2019-02-11T14:32:49.243Z,1.10
2019-02-11T14:35:19.046Z,2.07
2019-02-11T14:37:47.817Z,1.10
2019-02-11T14:40:16.435Z,1.50
2019-02-11T14:42:45.129Z,1.20
2019-02-11T14:45:16.389Z,1.20
2019-02-11T14:47:45.041Z,1.20
2019-02-11T14:50:13.597Z,1.40
2019-02-11T14:52:42.243Z,1.50
2019-02-11T14:55:11.506Z,1.30
2019-02-11T14:57:40.108Z,1.57
2019-02-11T15:00:18.741Z,1.50
2019-02-11T15:02:47.519Z,1.73
2019-02-11T15:05:16.805Z,1.70
2019-02-11T15:07:45.588Z,1.73
2019-02-11T15:10:14.595Z,1.70
2019-02-11T15:12:43.276Z,2.27
2019-02-11T15:15:12.766Z,1.90
2019-02-11T15:17:42.949Z,1.23
2019-02-11T15:20:15.784Z,1.23
2019-02-11T15:22:44.490Z,1.37
2019-02-11T15:25:14.590Z,1.13
2019-02-11T15:27:43.718Z,1.60
2019-02-11T15:30:17.650Z,1.40
2019-02-11T15:32:46.268Z,1.77
2019-02-11T15:35:14.957Z,1.80
2019-02-11T15:37:43.644Z,1.60
2019-02-11T15:40:17.929Z,1.80
2019-02-11T15:42:46.566Z,1.70
2019-02-11T15:45:15.466Z,1.47
2019-02-11T15:47:44.237Z,1.80
2019-02-11T15:50:14.726Z,1.83
2019-02-11T15:52:43.424Z,1.70
2019-02-11T15:55:14.694Z,1.53
2019-02-11T15:57:43.319Z,1.63
2019-02-11T16:00:17.292Z,1.10
2019-02-11T16:02:46.048Z,1.73
2019-02-11T16:05:16.652Z,1.70
2019-02-11T16:07:45.017Z,1.63
2019-02-11T16:10:16.650Z,1.57
2019-02-11T16:12:45.281Z,1.20
2019-02-11T16:15:14.176Z,1.57
2019-02-11T16:17:42.865Z,1.97
2019-02-11T16:20:14.663Z,3.50
2019-02-11T16:22:43.625Z,1.50
2019-02-11T16:25:15.033Z,1.73
2019-02-11T16:27:43.677Z,1.63
2019-02-11T16:30:15.300Z,1.53
2019-02-11T16:32:44.000Z,1.20
2019-02-11T16:35:14.493Z,1.53
2019-02-11T16:37:43.187Z,1.50
2019-02-11T16:40:14.622Z,1.57
2019-02-11T16:42:43.320Z,1.30
2019-02-11T16:45:12.033Z,1.97
2019-02-11T16:47:40.633Z,2.10
2019-02-11T16:50:11.337Z,2.10
2019-02-11T16:52:39.954Z,1.87
2019-02-11T16:55:10.236Z,1.53
2019-02-11T16:57:38.867Z,1.80
2019-02-11T17:00:15.603Z,2.03
2019-02-11T17:02:44.308Z,1.77
2019-02-11T17:05:13.399Z,2.27
2019-02-11T17:07:42.484Z,1.77
2019-02-11T17:10:12.846Z,2.10
2019-02-11T17:12:41.543Z,1.83
2019-02-11T17:15:12.145Z,1.70
2019-02-11T17:17:40.775Z,1.63
2019-02-11T17:20:11.366Z,1.87
2019-02-11T17:22:39.988Z,1.80
2019-02-11T17:25:10.180Z,1.70
2019-02-11T17:27:39.584Z,1.90
2019-02-11T17:30:31.693Z,1.90
2019-02-11T17:33:00.320Z,1.67
2019-02-11T17:35:28.884Z,1.97
2019-02-11T17:37:57.503Z,2.63
2019-02-11T17:40:26.056Z,2.20
2019-02-11T17:42:54.692Z,4.37
2019-02-11T17:45:27.420Z,2.40
2019-02-11T17:47:56.050Z,2.70
2019-02-11T17:50:24.673Z,3.30
2019-02-11T17:52:56.281Z,3.10
2019-02-11T17:55:24.838Z,3.60
2019-02-11T17:57:53.958Z,2.77
2019-02-11T18:00:36.132Z,2.27
2019-02-11T18:03:04.969Z,1.60
2019-02-11T18:05:33.507Z,1.50
2019-02-11T18:08:02.554Z,2.07
2019-02-11T18:10:31.109Z,1.80
2019-02-11T18:12:59.732Z,3.77
2019-02-11T18:15:28.354Z,1.90
2019-02-11T18:17:56.981Z,2.53
2019-02-11T18:20:25.537Z,2.10
2019-02-11T18:22:54.152Z,2.40
2019-02-11T18:25:22.966Z,2.50
2019-02-11T18:27:51.524Z,2.70
2019-02-11T18:30:20.222Z,2.10
2019-02-11T18:32:48.772Z,2.20
2019-02-11T18:35:19.245Z,2.33
2019-02-11T18:37:47.802Z,2.03
2019-02-11T18:40:16.663Z,2.57
2019-02-11T18:42:45.436Z,2.97
2019-02-11T18:45:17.853Z,2.73
2019-02-11T18:47:46.560Z,1.80
2019-02-11T18:50:15.756Z,2.13
2019-02-11T18:52:44.533Z,2.30
2019-02-11T18:55:20.720Z,2.40
2019-02-11T18:57:49.429Z,2.03
2019-02-11T19:00:19.593Z,4.60
2019-02-11T19:02:48.987Z,3.27
2019-02-11T19:05:17.879Z,2.30
2019-02-11T19:07:46.669Z,3.13
2019-02-11T19:10:16.455Z,2.40
2019-02-11T19:12:45.925Z,2.60
2019-02-11T19:15:15.917Z,2.00
2019-02-11T19:17:44.621Z,2.43
2019-02-11T19:20:15.317Z,2.20
2019-02-11T19:22:44.012Z,2.57
2019-02-11T19:25:12.926Z,3.10
2019-02-11T19:27:41.755Z,3.60
2019-02-11T19:30:24.291Z,3.93
2019-02-11T19:32:52.916Z,4.43
2019-02-11T19:35:21.545Z,4.83
2019-02-11T19:37:50.245Z,9.43
2019-02-11T19:40:19.844Z,9.67
2019-02-11T19:42:48.713Z,6.20
2019-02-11T19:45:21.534Z,6.53
2019-02-11T19:47:50.283Z,3.30
2019-02-11T19:50:19.052Z,1.63
2019-02-11T19:52:51.013Z,1.90
2019-02-11T19:55:19.562Z,2.03
2019-02-11T19:57:48.514Z,2.03
2019-02-11T20:00:19.578Z,2.03
2019-02-11T20:02:48.871Z,1.83
2019-02-11T20:05:17.498Z,2.07
2019-02-11T20:07:46.192Z,2.07
2019-02-11T20:10:22.608Z,2.30
2019-02-11T20:12:51.312Z,2.47
2019-02-11T20:15:28.020Z,2.57
2019-02-11T20:17:56.730Z,2.20
2019-02-11T20:20:25.271Z,2.53
2019-02-11T20:22:53.906Z,2.57
2019-02-11T20:25:22.624Z,2.60
2019-02-11T20:27:51.257Z,4.00
2019-02-11T20:30:22.889Z,5.77
2019-02-11T20:32:51.517Z,3.30
2019-02-11T20:35:20.078Z,3.40
2019-02-11T20:37:48.703Z,3.23
2019-02-11T20:40:19.600Z,3.50
2019-02-11T20:42:49.147Z,3.27
2019-02-11T20:45:20.608Z,3.30
2019-02-11T20:47:49.372Z,3.53
2019-02-11T20:50:17.988Z,4.10
2019-02-11T20:53:13.752Z,3.27
2019-02-11T20:55:42.567Z,3.40
2019-02-11T20:58:11.232Z,3.80
2019-02-11T21:00:39.791Z,6.20
2019-02-11T21:03:08.794Z,7.37
2019-02-11T21:05:37.282Z,6.27
2019-02-11T21:08:05.909Z,6.13
2019-02-11T21:10:34.463Z,4.80
2019-02-11T21:13:03.093Z,4.87
2019-02-11T21:15:31.652Z,4.63
2019-02-11T21:18:00.276Z,4.63
2019-02-11T21:20:34.748Z,3.77
2019-02-11T21:23:03.637Z,4.00
2019-02-11T21:25:32.184Z,3.60
2019-02-11T21:28:02.265Z,3.07
2019-02-11T21:30:30.886Z,3.27
2019-02-11T21:32:59.680Z,3.03
2019-02-11T21:35:28.239Z,4.10
2019-02-11T21:37:56.853Z,4.10
2019-02-11T21:40:25.408Z,4.00
2019-02-11T21:42:53.967Z,3.37
2019-02-11T21:45:22.712Z,4.10
2019-02-11T21:47:51.267Z,3.73
2019-02-11T21:50:26.845Z,4.37
2019-02-11T21:52:51.377Z,6.63
2019-02-11T21:55:21.723Z,6.03
2019-02-11T21:57:50.276Z,5.27
2019-02-11T22:00:20.329Z,4.80
2019-02-11T22:02:48.879Z,3.93
2019-02-11T22:05:17.560Z,3.97
2019-02-11T22:07:46.111Z,4.10
2019-02-11T22:10:19.704Z,4.40
2019-02-11T22:12:48.261Z,3.50
2019-02-11T22:15:17.011Z,4.00
2019-02-11T22:17:45.565Z,3.83
2019-02-11T22:20:16.005Z,4.05
2019-02-11T22:22:44.706Z,3.67
2019-02-11T22:25:13.854Z,3.17
2019-02-11T22:27:42.397Z,3.53
2019-02-11T22:30:13.615Z,3.70
2019-02-11T22:32:42.151Z,3.70
2019-02-11T22:35:11.284Z,4.50
2019-02-11T22:37:40.263Z,4.10
2019-02-11T22:40:12.089Z,4.10
2019-02-11T22:42:40.633Z,3.90
2019-02-11T22:45:12.332Z,4.13
2019-02-11T22:47:40.893Z,3.73
2019-02-11T22:50:12.224Z,4.00
2019-02-11T22:52:40.847Z,4.17
2019-02-11T22:55:11.380Z,3.73
2019-02-11T22:57:39.996Z,4.07
2019-02-11T23:00:25.225Z,3.80
2019-02-11T23:02:53.855Z,4.03
2019-02-11T23:05:22.449Z,4.07
2019-02-11T23:07:50.997Z,3.97
2019-02-11T23:10:19.657Z,4.27
2019-02-11T23:12:48.285Z,3.67
2019-02-11T23:15:16.961Z,3.33
2019-02-11T23:17:45.514Z,3.20
2019-02-11T23:20:14.171Z,3.60
2019-02-11T23:22:42.733Z,3.50
2019-02-11T23:25:11.465Z,3.50
2019-02-11T23:27:40.026Z,3.98
2019-02-11T23:30:13.480Z,3.40
2019-02-11T23:32:40.504Z,3.27
2019-02-11T23:35:09.249Z,3.37
2019-02-11T23:37:37.800Z,3.75
2019-02-11T23:40:10.154Z,3.37
2019-02-11T23:42:38.724Z,4.17
2019-02-11T23:45:09.933Z,3.75
2019-02-11T23:47:38.488Z,4.00
2019-02-11T23:50:11.792Z,4.10
2019-02-11T23:52:40.355Z,3.87
2019-02-11T23:55:09.894Z,4.35
2019-02-11T23:57:38.457Z,4.33
